Du har inga inställningar för hoppväder.nu

Hoppväder.nu

Senast uppdaterat 00:43

UTC-tid

2019-10-20 kl. 22:43


Sol och måne

Solen går upp 8:03 och går ner 18:25 (beräknade cirkatider)
Nästa fullmåne blir om 22 dagar (2019-11-12)

METAR

ESOE (Örebro)
(23 minuter sedan)
ESOE 202220Z AUTO 02009KT 0450 R01/1200U R19/P2000N VV002 08/07 Q1014=



ESOK (Karlstad)
(23 minuter sedan)
ESOK 202220Z AUTO 34006KT 7000 BR OVC002/// 05/05 Q1015=



ESGR (Skövde)
(23 minuter sedan)
ESGR 202220Z AUTO VRB03KT 6000 BR BKN010/// OVC024/// 07/07 Q1014=



ESSD (Borlänge)
(23 minuter sedan)
ESSD 202220Z AUTO 35005KT 7000 BR OVC003/// 03/02 Q1015 RESHUP REUP=



ESOW (Västerås)
(23 minuter sedan)
ESOW 202220Z AUTO 02006KT 9999 SCT004/// BKN006/// OVC008/// 07/06 Q1015=



TAF

ESOE (Örebro)
(13 minuter sedan)
ESOE 202230Z 2023/2106 35005KT 0400 FG OVC002 PROB40 2023/2102 2000 BR BKN005 PROB40 2023/2102 5000 BKN006=



ESOK (Karlstad)
ESOK



ESGR (Skövde)
ESGR



ESSD (Borlänge)
ESSD



ESOW (Västerås)
ESOW





Kodnycklar till TAF och METAR






LHP

(Örebro är område G2a i Södra delen)

Prognos är inte uppdaterad




Spotting

Hur fungerar spotthjälpen och Vindkartan?

Markvind är ca 0 m/s.



Vindkartan

Senast uppdaterad 00:43




All data kommer från LFV.se